Kwajalein/Bucholz, Marshall Islands
Current Conditions -  °F | °C
As of 10:00 AM on Friday 24 Oct 2014 (Local Time) from PKWA Reporting Station
Light Rain Light Rain  
Wind Chill: 80°   Ceiling: Unl
Heat Index: 84°   Visibility: 10mi
Dew Point: 75°   Wind: 17mph
Humidity: 86%   Direction: 110°ESE
Pressure: 29.87"   Gusts: 23mph
Location:  8.73°N, 167.73°E
Report Text: PKWA 232200Z AUTO 11015G20KT 10SM -RA SCT012 26/24 A2987 RMK AO2 T02640238
Loading
Personal Weather Stations






























Interactive Weather Map New forecast layout! Learn more

10-Day Weather Forecast

Advertisements
Track Severe Weather on mobile